Terminal Aerodrome Forecast
Issued by NWS

Home | Current Version | Previous Version | Text Only | Print | Product List | Glossary On
Versions: 1 2 3 4 5 6 7 8 9 10 11 12 13 14
000
FTUS42 TJSJ 260500
TAFIST
TAF
TIST 260532Z 2606/2706 09010KT P6SM VCSH FEW025 SCT040
      TEMPO 2606/2607 -SHRA BKN025
     FM261450 10016G24KT P6SM VCSH FEW025 SCT060
     FM262300 09008KT P6SM FEW025
      AMD NOT SKED=

USA.gov is the U.S. government's official web portal to all federal, state and local government web resources and services.